sensor_id;sensor_type;location;lat;lon;timestamp;temperature;humidity
22114;DHT22;11223;49.968;9.062;2023-04-25T00:00:59;8.80;99.90
22114;DHT22;11223;49.968;9.062;2023-04-25T00:03:24;8.70;99.90
22114;DHT22;11223;49.968;9.062;2023-04-25T00:05:50;8.70;99.90
22114;DHT22;11223;49.968;9.062;2023-04-25T00:08:17;8.70;99.90
22114;DHT22;11223;49.968;9.062;2023-04-25T00:10:43;8.70;99.90
22114;DHT22;11223;49.968;9.062;2023-04-25T00:13:08;8.70;99.90
22114;DHT22;11223;49.968;9.062;2023-04-25T00:15:36;8.70;99.90
22114;DHT22;11223;49.968;9.062;2023-04-25T00:18:03;8.60;99.90
22114;DHT22;11223;49.968;9.062;2023-04-25T00:20:29;8.60;99.90
22114;DHT22;11223;49.968;9.062;2023-04-25T00:22:55;8.60;99.90
22114;DHT22;11223;49.968;9.062;2023-04-25T00:25:21;8.60;99.90
22114;DHT22;11223;49.968;9.062;2023-04-25T00:27:46;8.60;99.90
22114;DHT22;11223;49.968;9.062;2023-04-25T00:30:12;8.50;99.90
22114;DHT22;11223;49.968;9.062;2023-04-25T00:32:38;8.50;99.90
22114;DHT22;11223;49.968;9.062;2023-04-25T00:35:04;8.50;99.90
22114;DHT22;11223;49.968;9.062;2023-04-25T00:37:29;8.40;99.90
22114;DHT22;11223;49.968;9.062;2023-04-25T00:39:57;8.40;99.90
22114;DHT22;11223;49.968;9.062;2023-04-25T00:42:24;8.40;99.90
22114;DHT22;11223;49.968;9.062;2023-04-25T00:44:51;8.30;99.90
22114;DHT22;11223;49.968;9.062;2023-04-25T00:47:17;8.30;99.90
22114;DHT22;11223;49.968;9.062;2023-04-25T00:49:43;8.30;99.90
22114;DHT22;11223;49.968;9.062;2023-04-25T00:52:09;8.30;99.90
22114;DHT22;11223;49.968;9.062;2023-04-25T00:54:35;8.30;99.90
22114;DHT22;11223;49.968;9.062;2023-04-25T00:57:00;8.30;99.90
22114;DHT22;11223;49.968;9.062;2023-04-25T00:59:27;8.30;99.90
22114;DHT22;11223;49.968;9.062;2023-04-25T01:01:53;8.20;99.90
22114;DHT22;11223;49.968;9.062;2023-04-25T01:04:19;8.20;99.90
22114;DHT22;11223;49.968;9.062;2023-04-25T01:06:45;8.20;99.90
22114;DHT22;11223;49.968;9.062;2023-04-25T01:09:11;8.20;99.90
22114;DHT22;11223;49.968;9.062;2023-04-25T01:11:37;8.10;99.90
22114;DHT22;11223;49.968;9.062;2023-04-25T01:14:05;8.20;99.90
22114;DHT22;11223;49.968;9.062;2023-04-25T01:16:32;8.20;99.90
22114;DHT22;11223;49.968;9.062;2023-04-25T01:18:59;8.20;99.90
22114;DHT22;11223;49.968;9.062;2023-04-25T01:21:24;8.20;99.90
22114;DHT22;11223;49.968;9.062;2023-04-25T01:23:52;8.10;99.90
22114;DHT22;11223;49.968;9.062;2023-04-25T01:26:19;8.20;99.90
22114;DHT22;11223;49.968;9.062;2023-04-25T01:28:46;8.20;99.90
22114;DHT22;11223;49.968;9.062;2023-04-25T01:31:12;8.10;99.90
22114;DHT22;11223;49.968;9.062;2023-04-25T01:33:39;8.10;99.90
22114;DHT22;11223;49.968;9.062;2023-04-25T01:36:05;8.10;99.90
22114;DHT22;11223;49.968;9.062;2023-04-25T01:38:31;8.10;99.90
22114;DHT22;11223;49.968;9.062;2023-04-25T01:40:57;8.10;99.90
22114;DHT22;11223;49.968;9.062;2023-04-25T01:43:23;8.00;99.90
22114;DHT22;11223;49.968;9.062;2023-04-25T01:45:49;8.00;99.90
22114;DHT22;11223;49.968;9.062;2023-04-25T01:48:15;8.00;99.90
22114;DHT22;11223;49.968;9.062;2023-04-25T01:50:41;8.00;99.90
22114;DHT22;11223;49.968;9.062;2023-04-25T01:53:08;8.00;99.90
22114;DHT22;11223;49.968;9.062;2023-04-25T01:55:34;8.00;99.90
22114;DHT22;11223;49.968;9.062;2023-04-25T01:58:02;8.00;99.90
22114;DHT22;11223;49.968;9.062;2023-04-25T02:00:28;8.00;99.90
22114;DHT22;11223;49.968;9.062;2023-04-25T02:02:57;8.00;99.90
22114;DHT22;11223;49.968;9.062;2023-04-25T02:05:22;8.00;99.90
22114;DHT22;11223;49.968;9.062;2023-04-25T02:07:48;8.00;99.90
22114;DHT22;11223;49.968;9.062;2023-04-25T02:10:14;8.00;99.90
22114;DHT22;11223;49.968;9.062;2023-04-25T02:12:40;8.00;99.90
22114;DHT22;11223;49.968;9.062;2023-04-25T02:15:06;8.00;99.90
22114;DHT22;11223;49.968;9.062;2023-04-25T02:17:31;7.90;99.90
22114;DHT22;11223;49.968;9.062;2023-04-25T02:19:57;8.00;99.90
22114;DHT22;11223;49.968;9.062;2023-04-25T02:22:23;8.00;99.90
22114;DHT22;11223;49.968;9.062;2023-04-25T02:24:48;8.00;99.90
22114;DHT22;11223;49.968;9.062;2023-04-25T02:27:14;8.00;99.90
22114;DHT22;11223;49.968;9.062;2023-04-25T02:29:40;8.00;99.90
22114;DHT22;11223;49.968;9.062;2023-04-25T02:32:06;8.00;99.90
22114;DHT22;11223;49.968;9.062;2023-04-25T02:34:31;8.00;99.90
22114;DHT22;11223;49.968;9.062;2023-04-25T02:36:57;7.90;99.90
22114;DHT22;11223;49.968;9.062;2023-04-25T02:39:22;7.90;99.90
22114;DHT22;11223;49.968;9.062;2023-04-25T02:41:50;7.90;99.90
22114;DHT22;11223;49.968;9.062;2023-04-25T02:44:16;7.90;99.90
22114;DHT22;11223;49.968;9.062;2023-04-25T02:46:41;7.90;99.90
22114;DHT22;11223;49.968;9.062;2023-04-25T02:49:07;7.90;99.90
22114;DHT22;11223;49.968;9.062;2023-04-25T02:51:32;7.90;99.90
22114;DHT22;11223;49.968;9.062;2023-04-25T02:53:58;7.90;99.90
22114;DHT22;11223;49.968;9.062;2023-04-25T02:56:23;7.90;99.90
22114;DHT22;11223;49.968;9.062;2023-04-25T02:58:51;7.80;99.90
22114;DHT22;11223;49.968;9.062;2023-04-25T03:01:17;7.90;99.90
22114;DHT22;11223;49.968;9.062;2023-04-25T03:03:42;7.90;99.90
22114;DHT22;11223;49.968;9.062;2023-04-25T03:06:08;7.90;99.90
22114;DHT22;11223;49.968;9.062;2023-04-25T03:08:34;7.90;99.90
22114;DHT22;11223;49.968;9.062;2023-04-25T03:11:00;7.90;99.90
22114;DHT22;11223;49.968;9.062;2023-04-25T03:13:26;7.90;99.90
22114;DHT22;11223;49.968;9.062;2023-04-25T03:15:52;7.90;99.90
22114;DHT22;11223;49.968;9.062;2023-04-25T03:18:18;7.90;99.90
22114;DHT22;11223;49.968;9.062;2023-04-25T03:20:43;7.90;99.90
22114;DHT22;11223;49.968;9.062;2023-04-25T03:23:09;7.90;99.90
22114;DHT22;11223;49.968;9.062;2023-04-25T03:25:35;7.80;99.90
22114;DHT22;11223;49.968;9.062;2023-04-25T03:28:00;7.80;99.90
22114;DHT22;11223;49.968;9.062;2023-04-25T03:30:26;7.80;99.90
22114;DHT22;11223;49.968;9.062;2023-04-25T03:32:51;7.80;99.90
22114;DHT22;11223;49.968;9.062;2023-04-25T03:35:17;7.80;99.90
22114;DHT22;11223;49.968;9.062;2023-04-25T03:37:43;7.70;99.90
22114;DHT22;11223;49.968;9.062;2023-04-25T03:40:11;7.70;99.90
22114;DHT22;11223;49.968;9.062;2023-04-25T03:42:37;7.70;99.90
22114;DHT22;11223;49.968;9.062;2023-04-25T03:45:03;7.60;99.90
22114;DHT22;11223;49.968;9.062;2023-04-25T03:47:29;7.60;99.90
22114;DHT22;11223;49.968;9.062;2023-04-25T03:49:54;7.60;99.90
22114;DHT22;11223;49.968;9.062;2023-04-25T03:52:20;7.60;99.90
22114;DHT22;11223;49.968;9.062;2023-04-25T03:54:45;7.60;99.90
22114;DHT22;11223;49.968;9.062;2023-04-25T03:57:11;7.60;99.90
22114;DHT22;11223;49.968;9.062;2023-04-25T03:59:37;7.60;99.90
22114;DHT22;11223;49.968;9.062;2023-04-25T04:02:02;7.60;99.90
22114;DHT22;11223;49.968;9.062;2023-04-25T04:04:28;7.60;99.90
22114;DHT22;11223;49.968;9.062;2023-04-25T04:06:53;7.60;99.90
22114;DHT22;11223;49.968;9.062;2023-04-25T04:09:19;7.60;99.90
22114;DHT22;11223;49.968;9.062;2023-04-25T04:11:45;7.60;99.90
22114;DHT22;11223;49.968;9.062;2023-04-25T04:14:11;7.60;99.90
22114;DHT22;11223;49.968;9.062;2023-04-25T04:16:36;7.60;99.90
22114;DHT22;11223;49.968;9.062;2023-04-25T04:19:02;7.60;99.90
22114;DHT22;11223;49.968;9.062;2023-04-25T04:21:28;7.60;99.90
22114;DHT22;11223;49.968;9.062;2023-04-25T04:23:54;7.60;99.90
22114;DHT22;11223;49.968;9.062;2023-04-25T04:26:20;7.60;99.90
22114;DHT22;11223;49.968;9.062;2023-04-25T04:28:49;7.60;99.90
22114;DHT22;11223;49.968;9.062;2023-04-25T04:31:16;7.50;99.90
22114;DHT22;11223;49.968;9.062;2023-04-25T04:33:43;7.50;99.90
22114;DHT22;11223;49.968;9.062;2023-04-25T04:36:10;7.50;99.90
22114;DHT22;11223;49.968;9.062;2023-04-25T04:38:35;7.50;99.90
22114;DHT22;11223;49.968;9.062;2023-04-25T04:41:01;7.50;99.90
22114;DHT22;11223;49.968;9.062;2023-04-25T04:43:27;7.50;99.90
22114;DHT22;11223;49.968;9.062;2023-04-25T04:45:53;7.50;99.90
22114;DHT22;11223;49.968;9.062;2023-04-25T04:48:21;7.60;99.90
22114;DHT22;11223;49.968;9.062;2023-04-25T04:50:47;7.60;99.90
22114;DHT22;11223;49.968;9.062;2023-04-25T04:53:13;7.60;99.90
22114;DHT22;11223;49.968;9.062;2023-04-25T04:55:39;7.60;99.90
22114;DHT22;11223;49.968;9.062;2023-04-25T04:58:06;7.70;99.90
22114;DHT22;11223;49.968;9.062;2023-04-25T05:00:32;7.70;99.90
22114;DHT22;11223;49.968;9.062;2023-04-25T05:02:58;7.80;99.90
22114;DHT22;11223;49.968;9.062;2023-04-25T05:05:24;7.80;99.90
22114;DHT22;11223;49.968;9.062;2023-04-25T05:07:50;7.80;99.90
22114;DHT22;11223;49.968;9.062;2023-04-25T05:10:16;7.90;99.90
22114;DHT22;11223;49.968;9.062;2023-04-25T05:12:42;7.90;99.90
22114;DHT22;11223;49.968;9.062;2023-04-25T05:15:08;7.90;99.90
22114;DHT22;11223;49.968;9.062;2023-04-25T05:17:34;8.00;99.90
22114;DHT22;11223;49.968;9.062;2023-04-25T05:19:59;8.00;99.90
22114;DHT22;11223;49.968;9.062;2023-04-25T05:22:25;8.10;99.90
22114;DHT22;11223;49.968;9.062;2023-04-25T05:24:51;8.10;99.90
22114;DHT22;11223;49.968;9.062;2023-04-25T05:27:18;8.20;99.90
22114;DHT22;11223;49.968;9.062;2023-04-25T05:29:43;8.20;99.90
22114;DHT22;11223;49.968;9.062;2023-04-25T05:32:09;8.20;99.90
22114;DHT22;11223;49.968;9.062;2023-04-25T05:34:35;8.30;99.90
22114;DHT22;11223;49.968;9.062;2023-04-25T05:37:00;8.30;99.90
22114;DHT22;11223;49.968;9.062;2023-04-25T05:39:26;8.30;99.90
22114;DHT22;11223;49.968;9.062;2023-04-25T05:41:52;8.40;99.90
22114;DHT22;11223;49.968;9.062;2023-04-25T05:44:18;8.40;99.90
22114;DHT22;11223;49.968;9.062;2023-04-25T05:46:44;8.40;99.90
22114;DHT22;11223;49.968;9.062;2023-04-25T05:49:10;8.40;99.90
22114;DHT22;11223;49.968;9.062;2023-04-25T05:51:35;8.50;99.90
22114;DHT22;11223;49.968;9.062;2023-04-25T05:54:01;8.50;99.90
22114;DHT22;11223;49.968;9.062;2023-04-25T05:56:27;8.50;99.90
22114;DHT22;11223;49.968;9.062;2023-04-25T05:58:52;8.50;99.90
22114;DHT22;11223;49.968;9.062;2023-04-25T06:01:18;8.60;99.90
22114;DHT22;11223;49.968;9.062;2023-04-25T06:03:44;8.60;99.90
22114;DHT22;11223;49.968;9.062;2023-04-25T06:06:11;8.60;99.90
22114;DHT22;11223;49.968;9.062;2023-04-25T06:08:36;8.60;99.90
22114;DHT22;11223;49.968;9.062;2023-04-25T06:11:03;8.60;99.90
22114;DHT22;11223;49.968;9.062;2023-04-25T06:13:28;8.60;99.90
22114;DHT22;11223;49.968;9.062;2023-04-25T06:15:54;8.50;99.90
22114;DHT22;11223;49.968;9.062;2023-04-25T06:18:19;8.50;99.90
22114;DHT22;11223;49.968;9.062;2023-04-25T06:20:45;8.50;99.90
22114;DHT22;11223;49.968;9.062;2023-04-25T06:23:11;8.50;99.90
22114;DHT22;11223;49.968;9.062;2023-04-25T06:25:36;8.50;99.90
22114;DHT22;11223;49.968;9.062;2023-04-25T06:28:02;8.60;99.90
22114;DHT22;11223;49.968;9.062;2023-04-25T06:30:27;8.60;99.90
22114;DHT22;11223;49.968;9.062;2023-04-25T06:32:53;8.70;99.90
22114;DHT22;11223;49.968;9.062;2023-04-25T06:35:19;8.80;99.90
22114;DHT22;11223;49.968;9.062;2023-04-25T06:37:45;8.90;99.90
22114;DHT22;11223;49.968;9.062;2023-04-25T06:40:10;9.00;99.90
22114;DHT22;11223;49.968;9.062;2023-04-25T06:42:36;9.10;99.90
22114;DHT22;11223;49.968;9.062;2023-04-25T06:45:02;9.20;99.90
22114;DHT22;11223;49.968;9.062;2023-04-25T06:47:28;9.30;99.90
22114;DHT22;11223;49.968;9.062;2023-04-25T06:49:55;9.40;99.90
22114;DHT22;11223;49.968;9.062;2023-04-25T06:52:20;9.60;99.90
22114;DHT22;11223;49.968;9.062;2023-04-25T06:54:46;9.70;99.90
22114;DHT22;11223;49.968;9.062;2023-04-25T06:57:12;9.60;99.90
22114;DHT22;11223;49.968;9.062;2023-04-25T06:59:37;9.60;99.90
22114;DHT22;11223;49.968;9.062;2023-04-25T07:02:03;9.60;99.90
22114;DHT22;11223;49.968;9.062;2023-04-25T07:04:29;9.50;99.90
22114;DHT22;11223;49.968;9.062;2023-04-25T07:06:55;9.50;99.90
22114;DHT22;11223;49.968;9.062;2023-04-25T07:09:21;9.50;99.90
22114;DHT22;11223;49.968;9.062;2023-04-25T07:11:47;9.50;99.90
22114;DHT22;11223;49.968;9.062;2023-04-25T07:14:12;9.50;99.90
22114;DHT22;11223;49.968;9.062;2023-04-25T07:16:38;9.50;99.90
22114;DHT22;11223;49.968;9.062;2023-04-25T07:19:04;9.50;99.90
22114;DHT22;11223;49.968;9.062;2023-04-25T07:21:29;9.60;99.90
22114;DHT22;11223;49.968;9.062;2023-04-25T07:23:56;9.60;99.90
22114;DHT22;11223;49.968;9.062;2023-04-25T07:26:21;9.60;99.90
22114;DHT22;11223;49.968;9.062;2023-04-25T07:28:47;9.50;99.90
22114;DHT22;11223;49.968;9.062;2023-04-25T07:31:16;9.50;99.90
22114;DHT22;11223;49.968;9.062;2023-04-25T07:33:46;9.50;99.90
22114;DHT22;11223;49.968;9.062;2023-04-25T07:36:12;9.60;99.90
22114;DHT22;11223;49.968;9.062;2023-04-25T07:38:38;9.80;99.90
22114;DHT22;11223;49.968;9.062;2023-04-25T07:41:04;9.90;99.90
22114;DHT22;11223;49.968;9.062;2023-04-25T07:43:30;10.10;99.90
22114;DHT22;11223;49.968;9.062;2023-04-25T07:45:56;10.20;99.90
22114;DHT22;11223;49.968;9.062;2023-04-25T07:48:21;10.30;99.90
22114;DHT22;11223;49.968;9.062;2023-04-25T07:50:47;10.30;99.90
22114;DHT22;11223;49.968;9.062;2023-04-25T07:53:12;10.30;99.90
22114;DHT22;11223;49.968;9.062;2023-04-25T07:55:38;10.40;99.90
22114;DHT22;11223;49.968;9.062;2023-04-25T07:58:06;10.40;99.90
22114;DHT22;11223;49.968;9.062;2023-04-25T08:00:32;10.40;99.90
22114;DHT22;11223;49.968;9.062;2023-04-25T08:02:57;10.40;99.90
22114;DHT22;11223;49.968;9.062;2023-04-25T08:05:23;10.60;99.90
22114;DHT22;11223;49.968;9.062;2023-04-25T08:07:48;10.70;99.90
22114;DHT22;11223;49.968;9.062;2023-04-25T08:10:14;10.80;99.90
22114;DHT22;11223;49.968;9.062;2023-04-25T08:12:40;11.00;99.90
22114;DHT22;11223;49.968;9.062;2023-04-25T08:15:06;11.10;99.90
22114;DHT22;11223;49.968;9.062;2023-04-25T08:17:31;11.30;99.90
22114;DHT22;11223;49.968;9.062;2023-04-25T08:19:57;11.50;99.90
22114;DHT22;11223;49.968;9.062;2023-04-25T08:22:23;11.70;99.90
22114;DHT22;11223;49.968;9.062;2023-04-25T08:24:48;11.60;99.90
22114;DHT22;11223;49.968;9.062;2023-04-25T08:27:14;11.70;99.90
22114;DHT22;11223;49.968;9.062;2023-04-25T08:29:41;11.80;99.90
22114;DHT22;11223;49.968;9.062;2023-04-25T08:32:06;11.80;99.90
22114;DHT22;11223;49.968;9.062;2023-04-25T08:34:32;11.90;99.90
22114;DHT22;11223;49.968;9.062;2023-04-25T08:36:57;12.00;99.90
22114;DHT22;11223;49.968;9.062;2023-04-25T08:39:23;12.00;99.90
22114;DHT22;11223;49.968;9.062;2023-04-25T08:41:48;12.10;99.90
22114;DHT22;11223;49.968;9.062;2023-04-25T08:44:14;12.30;99.90
22114;DHT22;11223;49.968;9.062;2023-04-25T08:46:41;12.30;99.90
22114;DHT22;11223;49.968;9.062;2023-04-25T08:49:09;12.30;99.90
22114;DHT22;11223;49.968;9.062;2023-04-25T08:51:36;12.20;99.90
22114;DHT22;11223;49.968;9.062;2023-04-25T08:54:12;12.00;99.90
22114;DHT22;11223;49.968;9.062;2023-04-25T08:56:45;11.90;99.90
22114;DHT22;11223;49.968;9.062;2023-04-25T08:59:12;12.00;99.90
22114;DHT22;11223;49.968;9.062;2023-04-25T09:01:37;12.10;99.90
22114;DHT22;11223;49.968;9.062;2023-04-25T09:04:03;12.40;99.90
22114;DHT22;11223;49.968;9.062;2023-04-25T09:06:30;12.70;99.90
22114;DHT22;11223;49.968;9.062;2023-04-25T09:09:05;13.00;99.90
22114;DHT22;11223;49.968;9.062;2023-04-25T09:11:35;13.20;99.90
22114;DHT22;11223;49.968;9.062;2023-04-25T09:14:18;13.20;99.90
22114;DHT22;11223;49.968;9.062;2023-04-25T09:16:58;13.00;99.90
22114;DHT22;11223;49.968;9.062;2023-04-25T09:19:32;12.80;99.90
22114;DHT22;11223;49.968;9.062;2023-04-25T09:22:00;12.70;99.90
22114;DHT22;11223;49.968;9.062;2023-04-25T09:24:42;12.50;99.90
22114;DHT22;11223;49.968;9.062;2023-04-25T09:27:11;12.40;99.90
22114;DHT22;11223;49.968;9.062;2023-04-25T09:29:41;12.40;99.90
22114;DHT22;11223;49.968;9.062;2023-04-25T09:32:23;12.40;99.90
22114;DHT22;11223;49.968;9.062;2023-04-25T09:34:51;12.40;99.90
22114;DHT22;11223;49.968;9.062;2023-04-25T09:39:47;12.60;99.90
22114;DHT22;11223;49.968;9.062;2023-04-25T09:42:15;12.70;99.90
22114;DHT22;11223;49.968;9.062;2023-04-25T09:44:42;12.70;99.90
22114;DHT22;11223;49.968;9.062;2023-04-25T09:47:15;12.70;99.90
22114;DHT22;11223;49.968;9.062;2023-04-25T09:49:43;12.50;99.90
22114;DHT22;11223;49.968;9.062;2023-04-25T09:52:23;12.40;99.90
22114;DHT22;11223;49.968;9.062;2023-04-25T09:54:50;12.30;99.90
22114;DHT22;11223;49.968;9.062;2023-04-25T09:57:21;12.20;99.90
22114;DHT22;11223;49.968;9.062;2023-04-25T09:59:48;12.30;99.90
22114;DHT22;11223;49.968;9.062;2023-04-25T10:02:17;12.40;99.90
22114;DHT22;11223;49.968;9.062;2023-04-25T10:04:47;12.40;99.90
22114;DHT22;11223;49.968;9.062;2023-04-25T10:07:13;12.50;99.90
22114;DHT22;11223;49.968;9.062;2023-04-25T10:09:40;12.40;99.90
22114;DHT22;11223;49.968;9.062;2023-04-25T10:12:06;12.30;99.90
22114;DHT22;11223;49.968;9.062;2023-04-25T10:14:33;12.20;99.90
22114;DHT22;11223;49.968;9.062;2023-04-25T10:16:59;12.20;99.90
22114;DHT22;11223;49.968;9.062;2023-04-25T10:19:26;12.10;99.90
22114;DHT22;11223;49.968;9.062;2023-04-25T10:22:04;12.10;99.90
22114;DHT22;11223;49.968;9.062;2023-04-25T10:24:31;12.00;99.90
22114;DHT22;11223;49.968;9.062;2023-04-25T10:26:57;12.00;99.90
22114;DHT22;11223;49.968;9.062;2023-04-25T10:29:25;11.90;99.90
22114;DHT22;11223;49.968;9.062;2023-04-25T10:31:50;11.90;99.90
22114;DHT22;11223;49.968;9.062;2023-04-25T10:34:17;11.90;99.90
22114;DHT22;11223;49.968;9.062;2023-04-25T10:36:43;11.80;99.90
22114;DHT22;11223;49.968;9.062;2023-04-25T10:39:25;11.70;99.90
22114;DHT22;11223;49.968;9.062;2023-04-25T10:41:58;11.60;99.90
22114;DHT22;11223;49.968;9.062;2023-04-25T10:44:31;11.60;99.90
22114;DHT22;11223;49.968;9.062;2023-04-25T10:46:59;11.60;99.90
22114;DHT22;11223;49.968;9.062;2023-04-25T10:49:33;11.70;99.90
22114;DHT22;11223;49.968;9.062;2023-04-25T10:54:51;11.90;99.90
22114;DHT22;11223;49.968;9.062;2023-04-25T10:57:30;11.90;99.90
22114;DHT22;11223;49.968;9.062;2023-04-25T11:02:31;11.80;99.90
22114;DHT22;11223;49.968;9.062;2023-04-25T11:04:57;11.80;99.90
22114;DHT22;11223;49.968;9.062;2023-04-25T11:10:04;12.00;99.90
22114;DHT22;11223;49.968;9.062;2023-04-25T11:12:33;12.00;99.90
22114;DHT22;11223;49.968;9.062;2023-04-25T11:15:04;12.00;99.90
22114;DHT22;11223;49.968;9.062;2023-04-25T11:17:30;11.90;99.90
22114;DHT22;11223;49.968;9.062;2023-04-25T11:19:56;11.90;99.90
22114;DHT22;11223;49.968;9.062;2023-04-25T11:22:22;11.80;99.90
22114;DHT22;11223;49.968;9.062;2023-04-25T11:24:48;11.70;99.90
22114;DHT22;11223;49.968;9.062;2023-04-25T11:27:14;11.60;99.90
22114;DHT22;11223;49.968;9.062;2023-04-25T11:29:40;11.50;99.90
22114;DHT22;11223;49.968;9.062;2023-04-25T11:32:06;11.40;99.90
22114;DHT22;11223;49.968;9.062;2023-04-25T11:34:33;11.30;99.90
22114;DHT22;11223;49.968;9.062;2023-04-25T11:37:00;11.20;99.90
22114;DHT22;11223;49.968;9.062;2023-04-25T11:39:26;11.10;99.90
22114;DHT22;11223;49.968;9.062;2023-04-25T11:41:53;11.00;99.90
22114;DHT22;11223;49.968;9.062;2023-04-25T11:44:19;11.10;99.90
22114;DHT22;11223;49.968;9.062;2023-04-25T11:46:45;11.10;99.90
22114;DHT22;11223;49.968;9.062;2023-04-25T11:49:12;11.30;99.90
22114;DHT22;11223;49.968;9.062;2023-04-25T11:51:46;11.40;99.90
22114;DHT22;11223;49.968;9.062;2023-04-25T11:54:12;11.70;99.90
22114;DHT22;11223;49.968;9.062;2023-04-25T11:56:41;11.90;99.90
22114;DHT22;11223;49.968;9.062;2023-04-25T11:59:07;12.20;99.90
22114;DHT22;11223;49.968;9.062;2023-04-25T12:01:34;12.30;99.90
22114;DHT22;11223;49.968;9.062;2023-04-25T12:04:12;12.30;99.90
22114;DHT22;11223;49.968;9.062;2023-04-25T12:06:39;12.30;99.90
22114;DHT22;11223;49.968;9.062;2023-04-25T12:09:08;12.30;99.90
22114;DHT22;11223;49.968;9.062;2023-04-25T12:12:01;12.10;99.90
22114;DHT22;11223;49.968;9.062;2023-04-25T12:14:34;12.10;99.90
22114;DHT22;11223;49.968;9.062;2023-04-25T12:17:01;12.10;99.90
22114;DHT22;11223;49.968;9.062;2023-04-25T12:19:35;12.20;99.90
22114;DHT22;11223;49.968;9.062;2023-04-25T12:22:02;12.20;99.90
22114;DHT22;11223;49.968;9.062;2023-04-25T12:24:33;12.30;99.90
22114;DHT22;11223;49.968;9.062;2023-04-25T12:29:28;12.30;99.90
22114;DHT22;11223;49.968;9.062;2023-04-25T12:31:55;12.20;99.90
22114;DHT22;11223;49.968;9.062;2023-04-25T12:34:22;12.00;99.90
22114;DHT22;11223;49.968;9.062;2023-04-25T12:36:48;11.80;99.90
22114;DHT22;11223;49.968;9.062;2023-04-25T12:39:24;11.70;99.90
22114;DHT22;11223;49.968;9.062;2023-04-25T12:41:51;11.50;99.90
22114;DHT22;11223;49.968;9.062;2023-04-25T12:44:19;11.50;99.90
22114;DHT22;11223;49.968;9.062;2023-04-25T12:46:44;11.40;99.90
22114;DHT22;11223;49.968;9.062;2023-04-25T12:49:10;11.30;99.90
22114;DHT22;11223;49.968;9.062;2023-04-25T12:51:36;11.30;99.90
22114;DHT22;11223;49.968;9.062;2023-04-25T12:54:03;11.20;99.90
22114;DHT22;11223;49.968;9.062;2023-04-25T12:56:30;11.30;99.90
22114;DHT22;11223;49.968;9.062;2023-04-25T12:58:56;11.30;99.90
22114;DHT22;11223;49.968;9.062;2023-04-25T13:01:22;11.40;99.90
22114;DHT22;11223;49.968;9.062;2023-04-25T13:03:48;11.50;99.90
22114;DHT22;11223;49.968;9.062;2023-04-25T13:06:15;11.70;99.90
22114;DHT22;11223;49.968;9.062;2023-04-25T13:08:41;11.90;99.90
22114;DHT22;11223;49.968;9.062;2023-04-25T13:11:07;12.10;99.90
22114;DHT22;11223;49.968;9.062;2023-04-25T13:13:33;12.30;99.90
22114;DHT22;11223;49.968;9.062;2023-04-25T13:16:03;12.40;99.90
22114;DHT22;11223;49.968;9.062;2023-04-25T13:18:30;12.60;99.90
22114;DHT22;11223;49.968;9.062;2023-04-25T13:20:56;12.60;99.70
22114;DHT22;11223;49.968;9.062;2023-04-25T13:23:24;12.70;99.50
22114;DHT22;11223;49.968;9.062;2023-04-25T13:25:49;12.70;97.70
22114;DHT22;11223;49.968;9.062;2023-04-25T13:28:15;12.60;97.70
22114;DHT22;11223;49.968;9.062;2023-04-25T13:30:41;12.50;97.50
22114;DHT22;11223;49.968;9.062;2023-04-25T13:33:07;12.40;97.20
22114;DHT22;11223;49.968;9.062;2023-04-25T13:35:34;12.30;98.00
22114;DHT22;11223;49.968;9.062;2023-04-25T13:38:00;12.20;98.10
22114;DHT22;11223;49.968;9.062;2023-04-25T13:40:26;12.20;97.30
22114;DHT22;11223;49.968;9.062;2023-04-25T13:42:52;12.20;99.00
22114;DHT22;11223;49.968;9.062;2023-04-25T13:45:18;12.10;98.90
22114;DHT22;11223;49.968;9.062;2023-04-25T13:47:44;12.10;99.60
22114;DHT22;11223;49.968;9.062;2023-04-25T13:50:10;12.10;99.50
22114;DHT22;11223;49.968;9.062;2023-04-25T13:52:35;12.10;98.90
22114;DHT22;11223;49.968;9.062;2023-04-25T13:55:01;12.10;99.30
22114;DHT22;11223;49.968;9.062;2023-04-25T13:57:31;12.10;99.10
22114;DHT22;11223;49.968;9.062;2023-04-25T13:59:57;12.10;97.30
22114;DHT22;11223;49.968;9.062;2023-04-25T14:02:23;12.20;97.10
22114;DHT22;11223;49.968;9.062;2023-04-25T14:04:48;12.30;97.30
22114;DHT22;11223;49.968;9.062;2023-04-25T14:07:14;12.40;96.30
22114;DHT22;11223;49.968;9.062;2023-04-25T14:09:43;12.50;96.20
22114;DHT22;11223;49.968;9.062;2023-04-25T14:12:09;12.70;96.00
22114;DHT22;11223;49.968;9.062;2023-04-25T14:14:35;12.80;94.80
22114;DHT22;11223;49.968;9.062;2023-04-25T14:17:01;12.90;93.90
22114;DHT22;11223;49.968;9.062;2023-04-25T14:19:26;13.10;95.10
22114;DHT22;11223;49.968;9.062;2023-04-25T14:21:52;13.30;95.00
22114;DHT22;11223;49.968;9.062;2023-04-25T14:24:18;13.50;94.50
22114;DHT22;11223;49.968;9.062;2023-04-25T14:26:44;13.90;94.10
22114;DHT22;11223;49.968;9.062;2023-04-25T14:29:09;14.40;94.00
22114;DHT22;11223;49.968;9.062;2023-04-25T14:31:37;14.20;91.70
22114;DHT22;11223;49.968;9.062;2023-04-25T14:34:04;13.80;93.10
22114;DHT22;11223;49.968;9.062;2023-04-25T14:36:30;13.50;94.30
22114;DHT22;11223;49.968;9.062;2023-04-25T14:38:56;13.10;93.50
22114;DHT22;11223;49.968;9.062;2023-04-25T14:41:22;12.80;95.00
22114;DHT22;11223;49.968;9.062;2023-04-25T14:43:48;12.60;94.30
22114;DHT22;11223;49.968;9.062;2023-04-25T14:46:14;12.40;95.40
22114;DHT22;11223;49.968;9.062;2023-04-25T14:48:39;12.20;96.00
22114;DHT22;11223;49.968;9.062;2023-04-25T14:51:05;12.10;96.20
22114;DHT22;11223;49.968;9.062;2023-04-25T14:53:31;12.00;96.50
22114;DHT22;11223;49.968;9.062;2023-04-25T14:55:57;11.90;96.80
22114;DHT22;11223;49.968;9.062;2023-04-25T14:58:23;11.90;96.90
22114;DHT22;11223;49.968;9.062;2023-04-25T15:00:48;11.80;96.80
22114;DHT22;11223;49.968;9.062;2023-04-25T15:03:14;11.70;94.90
22114;DHT22;11223;49.968;9.062;2023-04-25T15:05:41;11.70;96.10
22114;DHT22;11223;49.968;9.062;2023-04-25T15:08:08;11.80;96.20
22114;DHT22;11223;49.968;9.062;2023-04-25T15:10:33;12.00;95.30
22114;DHT22;11223;49.968;9.062;2023-04-25T15:12:59;12.80;94.90
22114;DHT22;11223;49.968;9.062;2023-04-25T15:15:25;14.50;91.00
22114;DHT22;11223;49.968;9.062;2023-04-25T15:17:50;16.00;84.00
22114;DHT22;11223;49.968;9.062;2023-04-25T15:20:16;16.70;78.20
22114;DHT22;11223;49.968;9.062;2023-04-25T15:22:43;16.30;74.80
22114;DHT22;11223;49.968;9.062;2023-04-25T15:25:09;15.50;78.60
22114;DHT22;11223;49.968;9.062;2023-04-25T15:27:37;14.80;82.90
22114;DHT22;11223;49.968;9.062;2023-04-25T15:30:12;14.20;82.70
22114;DHT22;11223;49.968;9.062;2023-04-25T15:32:40;13.80;83.40
22114;DHT22;11223;49.968;9.062;2023-04-25T15:35:08;13.40;83.90
22114;DHT22;11223;49.968;9.062;2023-04-25T15:37:34;13.20;86.40
22114;DHT22;11223;49.968;9.062;2023-04-25T15:40:03;13.00;87.30
22114;DHT22;11223;49.968;9.062;2023-04-25T15:42:46;12.90;91.50
22114;DHT22;11223;49.968;9.062;2023-04-25T15:45:13;12.80;91.50
22114;DHT22;11223;49.968;9.062;2023-04-25T15:47:39;12.70;90.40